sensor_id;sensor_type;location;lat;lon;timestamp;P1;durP1;ratioP1;P2;durP2;ratioP2
15151;SDS011;7676;50.900;6.234;2023-06-22T00:14:58;7.17;;;6.47;;
15151;SDS011;7676;50.900;6.234;2023-06-22T00:30:00;6.47;;;5.87;;
15151;SDS011;7676;50.900;6.234;2023-06-22T00:45:03;5.60;;;5.10;;
15151;SDS011;7676;50.900;6.234;2023-06-22T01:00:07;6.40;;;5.90;;
15151;SDS011;7676;50.900;6.234;2023-06-22T01:15:14;5.77;;;5.33;;
15151;SDS011;7676;50.900;6.234;2023-06-22T01:30:22;6.20;;;5.60;;
15151;SDS011;7676;50.900;6.234;2023-06-22T01:45:31;8.20;;;6.90;;
15151;SDS011;7676;50.900;6.234;2023-06-22T02:00:34;7.07;;;6.37;;
15151;SDS011;7676;50.900;6.234;2023-06-22T02:15:40;7.83;;;7.00;;
15151;SDS011;7676;50.900;6.234;2023-06-22T02:30:46;8.00;;;7.23;;
15151;SDS011;7676;50.900;6.234;2023-06-22T02:45:49;8.03;;;7.23;;
15151;SDS011;7676;50.900;6.234;2023-06-22T03:00:51;9.73;;;8.20;;
15151;SDS011;7676;50.900;6.234;2023-06-22T03:15:55;9.33;;;8.43;;
15151;SDS011;7676;50.900;6.234;2023-06-22T03:30:58;9.70;;;8.67;;
15151;SDS011;7676;50.900;6.234;2023-06-22T03:46:00;8.80;;;7.83;;
15151;SDS011;7676;50.900;6.234;2023-06-22T04:01:03;9.33;;;7.70;;
15151;SDS011;7676;50.900;6.234;2023-06-22T04:16:06;9.93;;;7.33;;
15151;SDS011;7676;50.900;6.234;2023-06-22T04:31:08;10.50;;;8.13;;
15151;SDS011;7676;50.900;6.234;2023-06-22T04:46:11;10.83;;;7.57;;
15151;SDS011;7676;50.900;6.234;2023-06-22T05:01:13;9.20;;;8.13;;
15151;SDS011;7676;50.900;6.234;2023-06-22T05:16:16;10.10;;;9.07;;
15151;SDS011;7676;50.900;6.234;2023-06-22T05:31:20;10.83;;;9.43;;
15151;SDS011;7676;50.900;6.234;2023-06-22T05:46:22;11.90;;;9.50;;
15151;SDS011;7676;50.900;6.234;2023-06-22T06:01:25;11.47;;;10.17;;
15151;SDS011;7676;50.900;6.234;2023-06-22T06:16:28;12.10;;;10.93;;
15151;SDS011;7676;50.900;6.234;2023-06-22T06:31:30;10.53;;;9.53;;
15151;SDS011;7676;50.900;6.234;2023-06-22T06:46:33;11.17;;;9.87;;
15151;SDS011;7676;50.900;6.234;2023-06-22T07:01:35;12.87;;;10.27;;
15151;SDS011;7676;50.900;6.234;2023-06-22T07:16:38;11.93;;;10.77;;
15151;SDS011;7676;50.900;6.234;2023-06-22T07:31:40;13.27;;;10.27;;
15151;SDS011;7676;50.900;6.234;2023-06-22T07:46:43;12.60;;;11.30;;
15151;SDS011;7676;50.900;6.234;2023-06-22T08:01:46;13.57;;;10.60;;
15151;SDS011;7676;50.900;6.234;2023-06-22T08:16:51;11.43;;;10.23;;
15151;SDS011;7676;50.900;6.234;2023-06-22T08:31:53;13.80;;;12.50;;
15151;SDS011;7676;50.900;6.234;2023-06-22T08:46:56;13.43;;;12.13;;
15151;SDS011;7676;50.900;6.234;2023-06-22T09:01:58;13.73;;;12.33;;
15151;SDS011;7676;50.900;6.234;2023-06-22T09:17:01;14.97;;;13.37;;
15151;SDS011;7676;50.900;6.234;2023-06-22T09:32:04;15.37;;;12.27;;
15151;SDS011;7676;50.900;6.234;2023-06-22T09:47:07;13.50;;;12.30;;
15151;SDS011;7676;50.900;6.234;2023-06-22T10:02:09;11.03;;;10.07;;
15151;SDS011;7676;50.900;6.234;2023-06-22T10:17:12;10.77;;;9.73;;
15151;SDS011;7676;50.900;6.234;2023-06-22T10:32:14;14.43;;;13.17;;
15151;SDS011;7676;50.900;6.234;2023-06-22T10:47:19;16.37;;;14.87;;
15151;SDS011;7676;50.900;6.234;2023-06-22T11:02:22;19.37;;;17.70;;
15151;SDS011;7676;50.900;6.234;2023-06-22T11:17:26;20.13;;;18.40;;
15151;SDS011;7676;50.900;6.234;2023-06-22T11:32:28;19.80;;;17.97;;
15151;SDS011;7676;50.900;6.234;2023-06-22T11:47:32;15.73;;;14.33;;
15151;SDS011;7676;50.900;6.234;2023-06-22T12:02:35;15.60;;;14.20;;
15151;SDS011;7676;50.900;6.234;2023-06-22T12:17:39;15.30;;;13.93;;
15151;SDS011;7676;50.900;6.234;2023-06-22T12:32:42;15.43;;;13.93;;
15151;SDS011;7676;50.900;6.234;2023-06-22T12:47:45;15.57;;;14.07;;
15151;SDS011;7676;50.900;6.234;2023-06-22T13:02:48;19.70;;;17.90;;
15151;SDS011;7676;50.900;6.234;2023-06-22T13:17:51;21.60;;;19.63;;
15151;SDS011;7676;50.900;6.234;2023-06-22T13:32:54;23.70;;;21.50;;
15151;SDS011;7676;50.900;6.234;2023-06-22T13:47:56;23.57;;;21.30;;
15151;SDS011;7676;50.900;6.234;2023-06-22T14:02:59;25.03;;;22.63;;
15151;SDS011;7676;50.900;6.234;2023-06-22T14:18:01;24.43;;;22.13;;
15151;SDS011;7676;50.900;6.234;2023-06-22T14:33:05;28.37;;;25.60;;
15151;SDS011;7676;50.900;6.234;2023-06-22T14:48:07;32.27;;;28.87;;
15151;SDS011;7676;50.900;6.234;2023-06-22T15:03:10;31.63;;;28.53;;
15151;SDS011;7676;50.900;6.234;2023-06-22T15:18:19;37.30;;;33.50;;
15151;SDS011;7676;50.900;6.234;2023-06-22T15:33:25;17.90;;;15.60;;
15151;SDS011;7676;50.900;6.234;2023-06-22T15:48:27;33.57;;;30.33;;
15151;SDS011;7676;50.900;6.234;2023-06-22T16:03:30;46.07;;;41.40;;
15151;SDS011;7676;50.900;6.234;2023-06-22T16:18:33;45.90;;;41.07;;
15151;SDS011;7676;50.900;6.234;2023-06-22T16:33:36;36.80;;;32.87;;
15151;SDS011;7676;50.900;6.234;2023-06-22T16:48:38;37.97;;;34.20;;
15151;SDS011;7676;50.900;6.234;2023-06-22T17:03:44;36.13;;;32.73;;
15151;SDS011;7676;50.900;6.234;2023-06-22T17:18:54;26.53;;;24.13;;
15151;SDS011;7676;50.900;6.234;2023-06-22T17:34:07;14.40;;;13.20;;
15151;SDS011;7676;50.900;6.234;2023-06-22T17:49:13;13.03;;;11.83;;
15151;SDS011;7676;50.900;6.234;2023-06-22T18:04:19;11.50;;;10.50;;
15151;SDS011;7676;50.900;6.234;2023-06-22T18:19:22;12.30;;;11.20;;
15151;SDS011;7676;50.900;6.234;2023-06-22T18:34:25;12.17;;;11.10;;
15151;SDS011;7676;50.900;6.234;2023-06-22T18:49:31;13.70;;;12.30;;
15151;SDS011;7676;50.900;6.234;2023-06-22T19:04:34;12.90;;;11.70;;
15151;SDS011;7676;50.900;6.234;2023-06-22T19:19:37;12.60;;;11.40;;
15151;SDS011;7676;50.900;6.234;2023-06-22T19:34:42;14.23;;;12.93;;
15151;SDS011;7676;50.900;6.234;2023-06-22T19:55:58;14.90;;;13.50;;
15151;SDS011;7676;50.900;6.234;2023-06-22T20:11:03;21.00;;;18.90;;
15151;SDS011;7676;50.900;6.234;2023-06-22T20:26:09;23.77;;;21.47;;
15151;SDS011;7676;50.900;6.234;2023-06-22T20:41:13;22.70;;;20.37;;
15151;SDS011;7676;50.900;6.234;2023-06-22T20:56:18;23.30;;;21.00;;
15151;SDS011;7676;50.900;6.234;2023-06-22T21:11:22;19.80;;;17.90;;
15151;SDS011;7676;50.900;6.234;2023-06-22T21:26:25;20.17;;;18.30;;
15151;SDS011;7676;50.900;6.234;2023-06-22T21:41:28;22.53;;;20.33;;
15151;SDS011;7676;50.900;6.234;2023-06-22T21:56:30;21.07;;;19.07;;
15151;SDS011;7676;50.900;6.234;2023-06-22T22:11:36;22.40;;;20.17;;
15151;SDS011;7676;50.900;6.234;2023-06-22T22:26:39;24.93;;;22.43;;
15151;SDS011;7676;50.900;6.234;2023-06-22T22:41:42;21.97;;;19.90;;
15151;SDS011;7676;50.900;6.234;2023-06-22T22:56:45;23.77;;;21.30;;
15151;SDS011;7676;50.900;6.234;2023-06-22T23:11:48;22.97;;;20.70;;
15151;SDS011;7676;50.900;6.234;2023-06-22T23:26:51;22.37;;;20.03;;
15151;SDS011;7676;50.900;6.234;2023-06-22T23:41:53;20.80;;;18.70;;
15151;SDS011;7676;50.900;6.234;2023-06-22T23:56:56;18.57;;;16.60;;
